createdAt,value
2018-09-24T00:00:08.156Z,26.72
2018-09-24T00:01:08.084Z,26.72
2018-09-24T00:02:08.120Z,26.67
2018-09-24T00:03:08.159Z,26.76
2018-09-24T00:04:08.192Z,26.80
2018-09-24T00:05:08.228Z,26.77
2018-09-24T00:06:08.263Z,26.80
2018-09-24T00:07:08.299Z,26.77
2018-09-24T00:08:08.337Z,26.73
2018-09-24T00:09:08.373Z,26.76
2018-09-24T00:10:08.405Z,26.72
2018-09-24T00:11:08.441Z,26.74
2018-09-24T00:12:08.479Z,26.74
2018-09-24T00:13:08.514Z,26.72
2018-09-24T00:14:08.551Z,26.72
2018-09-24T00:15:08.587Z,26.72
2018-09-24T00:16:08.626Z,26.80
2018-09-24T00:17:08.658Z,26.76
2018-09-24T00:18:08.694Z,26.72
2018-09-24T00:19:08.730Z,26.77
2018-09-24T00:20:08.770Z,26.67
2018-09-24T00:21:08.806Z,26.72
2018-09-24T00:22:08.836Z,26.73
2018-09-24T00:23:08.873Z,26.68
2018-09-24T00:24:08.909Z,26.74
2018-09-24T00:25:08.944Z,26.76
2018-09-24T00:26:08.980Z,26.74
2018-09-24T00:27:09.018Z,26.74
2018-09-24T00:28:09.053Z,26.76
2018-09-24T00:29:09.087Z,26.73
2018-09-24T00:30:09.124Z,26.74
2018-09-24T00:31:09.160Z,26.72
2018-09-24T00:32:09.195Z,26.67
2018-09-24T00:33:09.232Z,26.80
2018-09-24T00:34:09.270Z,26.73
2018-09-24T00:35:09.303Z,26.74
2018-09-24T00:36:09.340Z,26.69
2018-09-24T00:37:09.374Z,26.80
2018-09-24T00:38:09.409Z,26.80
2018-09-24T00:39:09.446Z,26.76
2018-09-24T00:40:09.487Z,26.72
2018-09-24T00:41:09.522Z,26.73
2018-09-24T00:42:09.553Z,26.77
2018-09-24T00:43:09.591Z,26.68
2018-09-24T00:44:09.626Z,26.69
2018-09-24T00:45:09.663Z,26.81
2018-09-24T00:46:09.700Z,26.73
2018-09-24T00:47:09.734Z,26.73
2018-09-24T00:48:09.771Z,26.72
2018-09-24T00:49:09.804Z,26.76
2018-09-24T00:50:09.842Z,26.77
2018-09-24T00:51:09.879Z,26.76
2018-09-24T00:52:09.913Z,26.74
2018-09-24T00:53:09.954Z,26.69
2018-09-24T00:54:09.989Z,26.72
2018-09-24T00:55:10.020Z,26.77
2018-09-24T00:56:10.057Z,26.80
2018-09-24T00:57:10.093Z,26.72
2018-09-24T00:58:10.127Z,26.69
2018-09-24T00:59:10.164Z,26.80
2018-09-24T01:00:10.201Z,26.74
2018-09-24T01:01:10.241Z,26.76
2018-09-24T01:02:10.271Z,26.74
2018-09-24T01:03:10.309Z,26.74
2018-09-24T01:04:10.347Z,26.74
2018-09-24T01:05:10.387Z,26.72
2018-09-24T01:06:10.416Z,26.74
2018-09-24T01:07:10.451Z,26.76
2018-09-24T01:08:10.494Z,26.79
2018-09-24T01:09:10.522Z,26.81
2018-09-24T01:10:10.558Z,26.77
2018-09-24T01:11:10.599Z,26.80
2018-09-24T01:12:10.629Z,26.81
2018-09-24T01:13:10.666Z,26.77
2018-09-24T01:14:10.705Z,26.79
2018-09-24T01:15:10.740Z,26.79
2018-09-24T01:16:10.774Z,26.84
2018-09-24T01:17:10.813Z,26.73
2018-09-24T01:18:10.844Z,26.77
2018-09-24T01:19:10.881Z,26.72
2018-09-24T01:20:10.919Z,26.74
2018-09-24T01:21:10.955Z,26.84
2018-09-24T01:22:10.989Z,26.80
2018-09-24T01:23:11.026Z,26.77
2018-09-24T01:24:11.063Z,26.81
2018-09-24T01:25:11.099Z,26.73
2018-09-24T01:26:11.132Z,26.80
2018-09-24T01:27:11.170Z,26.68
2018-09-24T01:28:11.206Z,26.76
2018-09-24T01:29:11.240Z,26.81
2018-09-24T01:30:11.278Z,26.72
2018-09-24T01:31:11.312Z,26.79
2018-09-24T01:32:11.347Z,26.76
2018-09-24T01:33:11.384Z,26.80
2018-09-24T01:34:11.420Z,26.76
2018-09-24T01:35:11.453Z,26.73
2018-09-24T01:36:11.490Z,26.79
2018-09-24T01:37:11.528Z,26.72
2018-09-24T01:38:11.561Z,26.76
2018-09-24T01:39:11.605Z,26.76
2018-09-24T01:40:11.635Z,26.79
2018-09-24T01:41:11.673Z,26.81
2018-09-24T01:42:11.709Z,26.73
2018-09-24T01:43:11.774Z,26.72
2018-09-24T01:44:11.778Z,26.76
2018-09-24T01:45:11.818Z,26.77
2018-09-24T01:46:11.849Z,26.77
2018-09-24T01:47:11.885Z,26.72
2018-09-24T01:48:11.923Z,26.80
2018-09-24T01:49:11.956Z,26.73
2018-09-24T01:50:11.993Z,26.69
2018-09-24T01:51:12.032Z,26.69
2018-09-24T01:52:12.068Z,26.74
2018-09-24T01:53:12.100Z,26.81
2018-09-24T01:54:12.137Z,26.73
2018-09-24T01:55:12.170Z,26.76
2018-09-24T01:56:12.208Z,26.80
2018-09-24T01:57:12.244Z,26.83
2018-09-24T01:58:12.278Z,26.74
2018-09-24T01:59:12.314Z,26.69
2018-09-24T02:00:12.352Z,26.74
2018-09-24T02:01:12.390Z,26.69
2018-09-24T02:02:12.422Z,26.68
2018-09-24T02:03:12.461Z,26.74
2018-09-24T02:04:12.493Z,26.79
2018-09-24T02:05:12.534Z,26.81
2018-09-24T02:06:12.567Z,26.77
2018-09-24T02:07:12.600Z,26.72
2018-09-24T02:08:12.637Z,26.73
2018-09-24T02:09:12.676Z,26.79
2018-09-24T02:10:12.710Z,26.68
2018-09-24T02:11:12.744Z,26.79
2018-09-24T02:12:12.781Z,26.76
2018-09-24T02:13:12.817Z,26.73
2018-09-24T02:14:12.855Z,26.73
2018-09-24T02:15:12.889Z,26.81
2018-09-24T02:16:12.924Z,26.80
2018-09-24T02:17:12.961Z,26.79
2018-09-24T02:18:12.999Z,26.77
2018-09-24T02:19:13.033Z,26.79
2018-09-24T02:20:13.068Z,26.79
2018-09-24T02:21:13.108Z,26.73
2018-09-24T02:22:13.144Z,26.74
2018-09-24T02:23:13.179Z,26.72
2018-09-24T02:24:13.211Z,26.68
2018-09-24T02:25:13.252Z,26.73
2018-09-24T02:26:13.282Z,26.73
2018-09-24T02:27:13.319Z,26.72
2018-09-24T02:28:13.362Z,26.72
2018-09-24T02:29:13.390Z,26.74
2018-09-24T02:30:13.427Z,26.73
2018-09-24T02:31:13.465Z,26.76
2018-09-24T02:32:13.498Z,26.69
2018-09-24T02:33:13.534Z,26.83
2018-09-24T02:34:13.572Z,26.74
2018-09-24T02:35:13.606Z,26.74
2018-09-24T02:36:13.642Z,26.74
2018-09-24T02:37:13.679Z,26.69
2018-09-24T02:38:13.712Z,26.69
2018-09-24T02:39:13.749Z,26.73
2018-09-24T02:40:13.789Z,26.79
2018-09-24T02:41:13.828Z,26.76
2018-09-24T02:42:13.857Z,26.76
2018-09-24T02:43:13.895Z,26.69
2018-09-24T02:44:13.929Z,26.73
2018-09-24T02:45:13.964Z,26.68
2018-09-24T02:46:14.000Z,26.65
2018-09-24T02:47:14.036Z,26.77
2018-09-24T02:48:14.074Z,26.80
2018-09-24T02:49:14.110Z,26.76
2018-09-24T02:50:14.143Z,26.76
2018-09-24T02:51:14.178Z,26.73
2018-09-24T02:52:14.216Z,26.72
2018-09-24T02:53:14.250Z,26.77
2018-09-24T02:54:14.290Z,26.74
2018-09-24T02:55:14.324Z,26.74
2018-09-24T02:56:14.356Z,26.73
2018-09-24T02:57:14.397Z,26.72
2018-09-24T02:58:14.429Z,26.72
2018-09-24T02:59:14.469Z,26.74
2018-09-24T03:00:14.505Z,26.74
2018-09-24T03:01:14.612Z,26.74
2018-09-24T03:02:14.577Z,26.72
2018-09-24T03:03:14.618Z,26.68
2018-09-24T03:04:14.649Z,26.74
2018-09-24T03:05:14.688Z,26.77
2018-09-24T03:06:14.717Z,26.72
2018-09-24T03:07:14.755Z,26.74
2018-09-24T03:08:14.790Z,26.68
2018-09-24T03:09:14.827Z,26.74
2018-09-24T03:10:14.861Z,26.72
2018-09-24T03:11:14.897Z,26.72
2018-09-24T03:12:14.932Z,26.76
2018-09-24T03:13:14.968Z,26.73
2018-09-24T03:14:15.005Z,26.74
2018-09-24T03:15:15.039Z,26.72
2018-09-24T03:16:15.077Z,26.72
2018-09-24T03:17:15.115Z,26.72
2018-09-24T03:18:15.147Z,26.76
2018-09-24T03:19:15.183Z,26.68
2018-09-24T03:20:15.220Z,26.73
2018-09-24T03:21:15.263Z,26.73
2018-09-24T03:22:15.309Z,26.74
2018-09-24T03:23:15.332Z,26.77
2018-09-24T03:24:15.363Z,26.73
2018-09-24T03:25:15.400Z,26.76
2018-09-24T03:26:15.504Z,26.69
2018-09-24T03:27:15.470Z,26.72
2018-09-24T03:28:15.507Z,26.73
2018-09-24T03:29:15.543Z,26.74
2018-09-24T03:30:15.581Z,26.69
2018-09-24T03:31:15.614Z,26.73
2018-09-24T03:32:15.649Z,26.73
2018-09-24T03:33:15.688Z,26.73
2018-09-24T03:34:15.729Z,26.67
2018-09-24T03:35:15.758Z,26.73
2018-09-24T03:36:15.799Z,26.72
2018-09-24T03:37:15.832Z,26.73
2018-09-24T03:38:15.864Z,26.69
2018-09-24T03:39:15.901Z,26.73
2018-09-24T03:40:15.938Z,26.74
2018-09-24T03:41:15.980Z,26.74
2018-09-24T03:42:16.012Z,26.73
2018-09-24T03:43:16.046Z,26.67
2018-09-24T03:44:16.079Z,26.72
2018-09-24T03:45:16.121Z,26.72
2018-09-24T03:46:16.153Z,26.73
2018-09-24T03:47:16.186Z,26.77
2018-09-24T03:48:16.224Z,26.72
2018-09-24T03:49:16.260Z,26.69
2018-09-24T03:50:16.294Z,26.68
2018-09-24T03:51:16.331Z,26.76
2018-09-24T03:52:16.367Z,26.72
2018-09-24T03:53:16.402Z,26.74
2018-09-24T03:54:16.438Z,26.72
2018-09-24T03:55:16.474Z,26.68
2018-09-24T03:56:16.512Z,26.67
2018-09-24T03:57:16.549Z,26.68
2018-09-24T03:58:16.580Z,26.72
2018-09-24T03:59:16.618Z,26.69
2018-09-24T04:00:16.655Z,26.73
2018-09-24T04:01:16.697Z,26.77
2018-09-24T04:02:16.726Z,26.81
2018-09-24T04:03:16.760Z,26.80
2018-09-24T04:04:16.796Z,26.84
2018-09-24T04:05:16.835Z,26.80
2018-09-24T04:06:16.866Z,26.77
2018-09-24T04:07:16.906Z,26.84
2018-09-24T04:08:16.939Z,26.77
2018-09-24T04:09:16.985Z,26.80
2018-09-24T04:10:17.078Z,26.80
2018-09-24T04:11:17.047Z,26.76
2018-09-24T04:12:17.088Z,26.74
2018-09-24T04:13:17.120Z,26.74
2018-09-24T04:14:17.155Z,26.77
2018-09-24T04:15:17.196Z,26.80
2018-09-24T04:16:17.227Z,26.81
2018-09-24T04:17:17.266Z,26.81
2018-09-24T04:18:17.300Z,26.81
2018-09-24T04:19:17.334Z,26.80
2018-09-24T04:20:17.369Z,26.77
2018-09-24T04:21:18.310Z,26.84
2018-09-24T04:22:17.441Z,26.81
2018-09-24T04:23:17.477Z,26.83
2018-09-24T04:24:17.515Z,26.87
2018-09-24T04:25:17.549Z,26.81
2018-09-24T04:26:17.665Z,26.84
2018-09-24T04:27:17.620Z,26.91
2018-09-24T04:28:17.659Z,26.81
2018-09-24T04:29:17.695Z,26.87
2018-09-24T04:30:17.728Z,26.81
2018-09-24T04:31:17.766Z,26.81
2018-09-24T04:32:17.802Z,26.84
2018-09-24T04:33:17.837Z,26.86
2018-09-24T04:34:17.872Z,26.79
2018-09-24T04:35:17.909Z,26.84
2018-09-24T04:36:17.942Z,26.81
2018-09-24T04:37:17.980Z,26.83
2018-09-24T04:38:18.015Z,26.92
2018-09-24T04:39:18.052Z,26.91
2018-09-24T04:40:18.088Z,26.81
2018-09-24T04:41:18.125Z,26.96
2018-09-24T04:42:18.157Z,26.92
2018-09-24T04:43:18.200Z,26.89
2018-09-24T04:44:18.232Z,26.94
2018-09-24T04:45:18.266Z,26.91
2018-09-24T04:46:18.303Z,26.95
2018-09-24T04:47:18.341Z,26.92
2018-09-24T04:48:18.389Z,26.96
2018-09-24T04:49:18.450Z,26.99
2018-09-24T04:50:18.445Z,26.94
2018-09-24T04:51:18.481Z,26.92
2018-09-24T04:52:18.519Z,26.91
2018-09-24T04:53:18.558Z,26.92
2018-09-24T04:54:18.594Z,26.92
2018-09-24T04:55:18.626Z,26.94
2018-09-24T04:56:18.660Z,26.99
2018-09-24T04:57:18.697Z,26.96
2018-09-24T04:58:18.733Z,26.95
2018-09-24T04:59:18.769Z,26.95
2018-09-24T05:00:18.811Z,26.96
2018-09-24T05:01:18.844Z,26.96
2018-09-24T05:02:18.875Z,26.96
2018-09-24T05:03:18.920Z,27.02
2018-09-24T05:04:18.948Z,26.99
2018-09-24T05:05:18.987Z,26.94
2018-09-24T05:06:19.023Z,27.02
2018-09-24T05:07:19.056Z,26.95
2018-09-24T05:08:19.092Z,26.95
2018-09-24T05:09:19.131Z,26.94
2018-09-24T05:10:19.239Z,26.87
2018-09-24T05:11:19.201Z,27.01
2018-09-24T05:12:19.239Z,27.04
2018-09-24T05:13:19.272Z,26.96
2018-09-24T05:14:19.307Z,26.99
2018-09-24T05:15:19.345Z,27.04
2018-09-24T05:16:19.468Z,26.96
2018-09-24T05:17:19.416Z,27.01
2018-09-24T05:18:19.452Z,26.99
2018-09-24T05:19:19.487Z,26.92
2018-09-24T05:20:19.524Z,26.99
2018-09-24T05:21:19.565Z,27.04
2018-09-24T05:22:19.598Z,27.02
2018-09-24T05:23:19.630Z,26.96
2018-09-24T05:24:19.665Z,27.04
2018-09-24T05:25:19.704Z,27.04
2018-09-24T05:26:19.738Z,27.02
2018-09-24T05:27:19.810Z,27.05
2018-09-24T05:28:19.815Z,26.98
2018-09-24T05:29:19.849Z,26.98
2018-09-24T05:30:19.882Z,26.95
2018-09-24T05:31:19.918Z,26.99
2018-09-24T05:32:19.978Z,27.02
2018-09-24T05:33:19.989Z,27.01
2018-09-24T05:34:20.041Z,26.99
2018-09-24T05:35:20.063Z,27.06
2018-09-24T05:36:20.100Z,27.01
2018-09-24T05:37:20.133Z,26.99
2018-09-24T05:38:20.170Z,26.99
2018-09-24T05:39:20.207Z,26.98
2018-09-24T05:40:20.245Z,27.02
2018-09-24T05:41:20.288Z,27.04
2018-09-24T05:42:20.313Z,26.98
2018-09-24T05:43:20.349Z,27.04
2018-09-24T05:44:20.384Z,27.05
2018-09-24T05:45:20.422Z,27.01
2018-09-24T05:46:20.458Z,26.99
2018-09-24T05:47:20.494Z,27.09
2018-09-24T05:48:20.528Z,27.06
2018-09-24T05:49:20.566Z,27.10
2018-09-24T05:50:20.599Z,27.09
2018-09-24T05:51:20.636Z,27.11
2018-09-24T05:52:20.673Z,27.13
2018-09-24T05:53:20.729Z,27.02
2018-09-24T05:54:20.774Z,27.10
2018-09-24T05:55:20.781Z,27.09
2018-09-24T05:56:20.823Z,27.16
2018-09-24T05:57:20.853Z,27.16
2018-09-24T05:58:20.889Z,27.19
2018-09-24T05:59:20.925Z,27.13
2018-09-24T06:00:20.961Z,27.21
2018-09-24T06:01:21.000Z,27.17
2018-09-24T06:02:21.031Z,27.14
2018-09-24T06:03:21.072Z,27.24
2018-09-24T06:04:21.105Z,27.23
2018-09-24T06:05:21.138Z,27.28
2018-09-24T06:06:21.174Z,27.29
2018-09-24T06:07:21.218Z,27.23
2018-09-24T06:08:21.253Z,27.29
2018-09-24T06:09:21.283Z,27.24
2018-09-24T06:10:21.319Z,27.33
2018-09-24T06:11:21.357Z,27.32
2018-09-24T06:12:21.394Z,27.32
2018-09-24T06:13:21.429Z,27.38
2018-09-24T06:14:21.464Z,27.32
2018-09-24T06:15:21.503Z,27.28
2018-09-24T06:16:21.536Z,27.26
2018-09-24T06:17:21.573Z,27.29
2018-09-24T06:18:21.608Z,27.29
2018-09-24T06:19:21.672Z,27.28
2018-09-24T06:20:21.681Z,27.35
2018-09-24T06:21:21.725Z,27.33
2018-09-24T06:22:21.751Z,27.39
2018-09-24T06:23:21.793Z,27.24
2018-09-24T06:24:21.825Z,27.31
2018-09-24T06:25:21.861Z,27.42
2018-09-24T06:26:21.898Z,27.42
2018-09-24T06:27:21.936Z,27.41
2018-09-24T06:28:22.020Z,27.42
2018-09-24T06:29:22.006Z,27.31
2018-09-24T06:30:22.044Z,27.35
2018-09-24T06:31:22.075Z,27.42
2018-09-24T06:32:22.116Z,27.41
2018-09-24T06:33:22.154Z,27.39
2018-09-24T06:34:22.276Z,27.42
2018-09-24T06:35:22.222Z,27.38
2018-09-24T06:36:22.258Z,27.41
2018-09-24T06:37:22.292Z,27.41
2018-09-24T06:38:22.327Z,27.41
2018-09-24T06:39:22.370Z,27.38
2018-09-24T06:40:22.400Z,27.41
2018-09-24T06:41:22.440Z,27.42
2018-09-24T06:42:22.471Z,27.43
2018-09-24T06:43:22.528Z,27.41
2018-09-24T06:44:22.543Z,27.42
2018-09-24T06:45:22.581Z,27.43
2018-09-24T06:46:22.619Z,27.48
2018-09-24T06:47:22.659Z,27.41
2018-09-24T06:48:22.696Z,27.36
2018-09-24T06:49:22.725Z,27.38
2018-09-24T06:50:22.763Z,27.42
2018-09-24T06:51:22.798Z,27.48
2018-09-24T06:52:22.833Z,27.47
2018-09-24T06:53:22.872Z,27.48
2018-09-24T06:54:22.905Z,27.43
2018-09-24T06:55:22.944Z,27.53
2018-09-24T06:56:22.980Z,27.51
2018-09-24T06:57:23.017Z,27.46
2018-09-24T06:58:23.049Z,27.43
2018-09-24T06:59:23.119Z,27.51
2018-09-24T07:00:23.124Z,27.51
2018-09-24T07:01:23.163Z,27.46
2018-09-24T07:02:23.197Z,27.59
2018-09-24T07:03:23.230Z,27.47
2018-09-24T07:04:23.267Z,27.51
2018-09-24T07:05:23.310Z,27.47
2018-09-24T07:06:23.339Z,27.43
2018-09-24T07:07:23.376Z,27.47
2018-09-24T07:08:23.411Z,27.46
2018-09-24T07:09:23.448Z,27.59
2018-09-24T07:10:23.484Z,27.51
2018-09-24T07:11:23.636Z,27.50
2018-09-24T07:12:23.556Z,27.48
2018-09-24T07:13:23.593Z,27.46
2018-09-24T07:14:23.629Z,27.51
2018-09-24T07:15:23.663Z,27.42
2018-09-24T07:16:23.701Z,27.46
2018-09-24T07:17:23.739Z,27.51
2018-09-24T07:18:23.775Z,27.53
2018-09-24T07:19:23.808Z,27.51
2018-09-24T07:20:23.846Z,27.48
2018-09-24T07:21:23.896Z,27.47
2018-09-24T07:22:23.919Z,27.46
2018-09-24T07:23:23.953Z,27.51
2018-09-24T07:24:23.994Z,27.50
2018-09-24T07:25:24.027Z,27.51
2018-09-24T07:26:24.063Z,27.46
2018-09-24T07:27:24.098Z,27.54
2018-09-24T07:28:24.204Z,27.51
2018-09-24T07:29:24.174Z,27.46
2018-09-24T07:30:24.209Z,27.54
2018-09-24T07:31:24.242Z,27.50
2018-09-24T07:32:24.281Z,27.50
2018-09-24T07:33:24.346Z,27.51
2018-09-24T07:34:24.352Z,27.48
2018-09-24T07:35:24.389Z,27.47
2018-09-24T07:36:24.423Z,27.47
2018-09-24T07:37:24.461Z,27.54
2018-09-24T07:38:24.498Z,27.51
2018-09-24T07:39:24.538Z,27.50
2018-09-24T07:40:24.569Z,27.47
2018-09-24T07:41:25.400Z,27.51
2018-09-24T07:42:24.644Z,27.48
2018-09-24T07:43:24.688Z,27.48
2018-09-24T07:44:24.714Z,27.47
2018-09-24T07:45:24.752Z,27.46
2018-09-24T07:46:24.788Z,27.50
2018-09-24T07:47:24.821Z,27.58
2018-09-24T07:48:24.859Z,27.46
2018-09-24T07:49:24.905Z,27.50
2018-09-24T07:50:24.935Z,27.43
2018-09-24T07:51:24.968Z,27.43
2018-09-24T07:52:25.003Z,27.46
2018-09-24T07:53:25.040Z,27.46
2018-09-24T07:54:25.075Z,27.47
2018-09-24T07:55:25.196Z,27.46
2018-09-24T07:57:55.821Z,27.47
2018-09-24T08:00:47.736Z,27.46
2018-09-24T08:01:47.768Z,27.47
